sensor_id;sensor_type;location;lat;lon;timestamp;temperature;humidity
3300;DHT22;1662;49.310;8.134;2023-08-17T00:00:20;21.10;99.90
3300;DHT22;1662;49.310;8.134;2023-08-17T00:02:46;21.10;99.90
3300;DHT22;1662;49.310;8.134;2023-08-17T00:05:11;21.00;99.90
3300;DHT22;1662;49.310;8.134;2023-08-17T00:07:37;20.90;99.90
3300;DHT22;1662;49.310;8.134;2023-08-17T00:10:03;20.90;99.90
3300;DHT22;1662;49.310;8.134;2023-08-17T00:12:29;20.80;99.90
3300;DHT22;1662;49.310;8.134;2023-08-17T00:14:55;20.70;99.90
3300;DHT22;1662;49.310;8.134;2023-08-17T00:17:20;20.70;99.90
3300;DHT22;1662;49.310;8.134;2023-08-17T00:19:46;20.70;99.90
3300;DHT22;1662;49.310;8.134;2023-08-17T00:22:12;20.70;99.90
3300;DHT22;1662;49.310;8.134;2023-08-17T00:24:38;20.70;99.90
3300;DHT22;1662;49.310;8.134;2023-08-17T00:27:04;20.70;99.90
3300;DHT22;1662;49.310;8.134;2023-08-17T00:29:30;20.70;99.90
3300;DHT22;1662;49.310;8.134;2023-08-17T00:31:55;20.70;99.90
3300;DHT22;1662;49.310;8.134;2023-08-17T00:34:21;20.70;99.90
3300;DHT22;1662;49.310;8.134;2023-08-17T00:36:46;20.70;99.90
3300;DHT22;1662;49.310;8.134;2023-08-17T00:39:12;20.70;99.90
3300;DHT22;1662;49.310;8.134;2023-08-17T00:41:38;20.70;99.90
3300;DHT22;1662;49.310;8.134;2023-08-17T00:44:03;20.70;99.90
3300;DHT22;1662;49.310;8.134;2023-08-17T00:46:30;20.70;99.90
3300;DHT22;1662;49.310;8.134;2023-08-17T00:48:56;20.70;99.90
3300;DHT22;1662;49.310;8.134;2023-08-17T00:51:24;20.60;99.90
3300;DHT22;1662;49.310;8.134;2023-08-17T00:53:51;20.60;99.90
3300;DHT22;1662;49.310;8.134;2023-08-17T00:56:17;20.60;99.90
3300;DHT22;1662;49.310;8.134;2023-08-17T00:58:43;20.60;99.90
3300;DHT22;1662;49.310;8.134;2023-08-17T01:01:09;20.60;99.90
3300;DHT22;1662;49.310;8.134;2023-08-17T01:03:35;20.50;99.90
3300;DHT22;1662;49.310;8.134;2023-08-17T01:06:02;20.50;99.90
3300;DHT22;1662;49.310;8.134;2023-08-17T01:08:29;20.50;99.90
3300;DHT22;1662;49.310;8.134;2023-08-17T01:16:40;20.50;99.90
3300;DHT22;1662;49.310;8.134;2023-08-17T01:19:08;20.50;99.90
3300;DHT22;1662;49.310;8.134;2023-08-17T01:21:45;20.50;99.90
3300;DHT22;1662;49.310;8.134;2023-08-17T01:24:16;20.50;99.90
3300;DHT22;1662;49.310;8.134;2023-08-17T01:26:42;20.50;99.90
3300;DHT22;1662;49.310;8.134;2023-08-17T01:29:07;20.50;99.90
3300;DHT22;1662;49.310;8.134;2023-08-17T01:31:52;20.50;99.90
3300;DHT22;1662;49.310;8.134;2023-08-17T01:34:21;20.50;99.90
3300;DHT22;1662;49.310;8.134;2023-08-17T01:36:58;20.50;99.90
3300;DHT22;1662;49.310;8.134;2023-08-17T01:39:31;20.60;99.90
3300;DHT22;1662;49.310;8.134;2023-08-17T01:41:58;20.80;99.90
3300;DHT22;1662;49.310;8.134;2023-08-17T01:44:25;20.80;99.90
3300;DHT22;1662;49.310;8.134;2023-08-17T01:46:51;20.80;99.90
3300;DHT22;1662;49.310;8.134;2023-08-17T01:49:17;20.80;99.90
3300;DHT22;1662;49.310;8.134;2023-08-17T01:51:42;20.80;99.90
3300;DHT22;1662;49.310;8.134;2023-08-17T01:54:08;20.70;99.90
3300;DHT22;1662;49.310;8.134;2023-08-17T01:56:34;20.70;99.90
3300;DHT22;1662;49.310;8.134;2023-08-17T01:58:59;20.70;99.90
3300;DHT22;1662;49.310;8.134;2023-08-17T02:01:25;20.60;99.90
3300;DHT22;1662;49.310;8.134;2023-08-17T02:03:51;20.60;99.90
3300;DHT22;1662;49.310;8.134;2023-08-17T02:06:16;20.60;99.90
3300;DHT22;1662;49.310;8.134;2023-08-17T02:08:43;20.60;99.90
3300;DHT22;1662;49.310;8.134;2023-08-17T02:11:11;20.60;99.90
3300;DHT22;1662;49.310;8.134;2023-08-17T02:13:37;20.50;99.90
3300;DHT22;1662;49.310;8.134;2023-08-17T02:16:04;20.50;99.90
3300;DHT22;1662;49.310;8.134;2023-08-17T02:18:32;20.50;99.90
3300;DHT22;1662;49.310;8.134;2023-08-17T02:21:00;20.50;99.90
3300;DHT22;1662;49.310;8.134;2023-08-17T02:23:25;20.50;99.90
3300;DHT22;1662;49.310;8.134;2023-08-17T02:25:51;20.50;99.90
3300;DHT22;1662;49.310;8.134;2023-08-17T02:28:17;20.50;99.90
3300;DHT22;1662;49.310;8.134;2023-08-17T02:30:43;20.50;99.90
3300;DHT22;1662;49.310;8.134;2023-08-17T02:33:08;20.50;99.90
3300;DHT22;1662;49.310;8.134;2023-08-17T02:35:34;20.50;99.90
3300;DHT22;1662;49.310;8.134;2023-08-17T02:38:00;20.70;99.90
3300;DHT22;1662;49.310;8.134;2023-08-17T02:40:25;20.70;99.90
3300;DHT22;1662;49.310;8.134;2023-08-17T02:42:51;20.70;99.90
3300;DHT22;1662;49.310;8.134;2023-08-17T02:45:16;20.60;99.90
3300;DHT22;1662;49.310;8.134;2023-08-17T02:47:42;20.60;99.90
3300;DHT22;1662;49.310;8.134;2023-08-17T02:50:08;20.60;99.90
3300;DHT22;1662;49.310;8.134;2023-08-17T02:52:34;20.50;99.90
3300;DHT22;1662;49.310;8.134;2023-08-17T02:54:59;20.50;99.90
3300;DHT22;1662;49.310;8.134;2023-08-17T02:57:25;20.50;99.90
3300;DHT22;1662;49.310;8.134;2023-08-17T02:59:51;20.40;99.90
3300;DHT22;1662;49.310;8.134;2023-08-17T03:02:16;20.40;99.90
3300;DHT22;1662;49.310;8.134;2023-08-17T03:04:42;20.40;99.90
3300;DHT22;1662;49.310;8.134;2023-08-17T03:07:08;20.30;99.90
3300;DHT22;1662;49.310;8.134;2023-08-17T03:09:33;20.30;99.90
3300;DHT22;1662;49.310;8.134;2023-08-17T03:11:59;20.30;99.90
3300;DHT22;1662;49.310;8.134;2023-08-17T03:14:27;20.30;99.90
3300;DHT22;1662;49.310;8.134;2023-08-17T03:16:52;20.30;99.90
3300;DHT22;1662;49.310;8.134;2023-08-17T03:19:18;20.30;99.90
3300;DHT22;1662;49.310;8.134;2023-08-17T03:21:44;20.30;99.90
3300;DHT22;1662;49.310;8.134;2023-08-17T03:24:09;20.30;99.90
3300;DHT22;1662;49.310;8.134;2023-08-17T03:26:37;20.30;99.90
3300;DHT22;1662;49.310;8.134;2023-08-17T03:29:03;20.30;99.90
3300;DHT22;1662;49.310;8.134;2023-08-17T03:31:31;20.30;99.90
3300;DHT22;1662;49.310;8.134;2023-08-17T03:33:59;20.20;99.90
3300;DHT22;1662;49.310;8.134;2023-08-17T03:36:25;20.20;99.90
3300;DHT22;1662;49.310;8.134;2023-08-17T03:38:51;20.20;99.90
3300;DHT22;1662;49.310;8.134;2023-08-17T03:41:16;20.20;99.90
3300;DHT22;1662;49.310;8.134;2023-08-17T03:43:42;20.10;99.90
3300;DHT22;1662;49.310;8.134;2023-08-17T03:46:08;20.20;99.90
3300;DHT22;1662;49.310;8.134;2023-08-17T03:48:33;20.10;99.90
3300;DHT22;1662;49.310;8.134;2023-08-17T03:50:59;20.10;99.90
3300;DHT22;1662;49.310;8.134;2023-08-17T03:53:26;20.10;99.90
3300;DHT22;1662;49.310;8.134;2023-08-17T03:55:52;20.00;99.90
3300;DHT22;1662;49.310;8.134;2023-08-17T03:58:18;20.00;99.90
3300;DHT22;1662;49.310;8.134;2023-08-17T04:00:50;20.00;99.90
3300;DHT22;1662;49.310;8.134;2023-08-17T04:03:16;20.00;99.90
3300;DHT22;1662;49.310;8.134;2023-08-17T04:05:42;20.00;99.90
3300;DHT22;1662;49.310;8.134;2023-08-17T04:08:08;20.20;99.90
3300;DHT22;1662;49.310;8.134;2023-08-17T04:10:34;20.40;99.90
3300;DHT22;1662;49.310;8.134;2023-08-17T04:12:59;20.40;99.90
3300;DHT22;1662;49.310;8.134;2023-08-17T04:15:25;20.30;99.90
3300;DHT22;1662;49.310;8.134;2023-08-17T04:17:50;20.30;99.90
3300;DHT22;1662;49.310;8.134;2023-08-17T04:20:16;20.20;99.90
3300;DHT22;1662;49.310;8.134;2023-08-17T04:22:43;20.20;99.90
3300;DHT22;1662;49.310;8.134;2023-08-17T04:25:12;20.10;99.90
3300;DHT22;1662;49.310;8.134;2023-08-17T04:27:40;20.00;99.90
3300;DHT22;1662;49.310;8.134;2023-08-17T04:30:09;19.90;99.90
3300;DHT22;1662;49.310;8.134;2023-08-17T04:32:35;19.90;99.90
3300;DHT22;1662;49.310;8.134;2023-08-17T04:35:00;19.80;99.90
3300;DHT22;1662;49.310;8.134;2023-08-17T04:37:26;19.80;99.90
3300;DHT22;1662;49.310;8.134;2023-08-17T04:39:52;20.00;99.90
3300;DHT22;1662;49.310;8.134;2023-08-17T04:42:18;20.20;99.90
3300;DHT22;1662;49.310;8.134;2023-08-17T04:44:45;20.20;99.90
3300;DHT22;1662;49.310;8.134;2023-08-17T04:47:11;20.10;99.90
3300;DHT22;1662;49.310;8.134;2023-08-17T04:49:36;20.00;99.90
3300;DHT22;1662;49.310;8.134;2023-08-17T04:52:03;19.90;99.90
3300;DHT22;1662;49.310;8.134;2023-08-17T04:54:28;19.80;99.90
3300;DHT22;1662;49.310;8.134;2023-08-17T04:56:56;19.80;99.90
3300;DHT22;1662;49.310;8.134;2023-08-17T04:59:22;19.70;99.90
3300;DHT22;1662;49.310;8.134;2023-08-17T05:01:47;19.60;99.90
3300;DHT22;1662;49.310;8.134;2023-08-17T05:04:13;19.60;99.90
3300;DHT22;1662;49.310;8.134;2023-08-17T05:06:39;19.60;99.90
3300;DHT22;1662;49.310;8.134;2023-08-17T05:09:04;19.70;99.90
3300;DHT22;1662;49.310;8.134;2023-08-17T05:11:31;19.70;99.90
3300;DHT22;1662;49.310;8.134;2023-08-17T05:13:56;19.70;99.90
3300;DHT22;1662;49.310;8.134;2023-08-17T05:16:22;19.80;99.90
3300;DHT22;1662;49.310;8.134;2023-08-17T05:18:47;19.80;99.90
3300;DHT22;1662;49.310;8.134;2023-08-17T05:21:13;19.80;99.90
3300;DHT22;1662;49.310;8.134;2023-08-17T05:23:39;19.80;99.90
3300;DHT22;1662;49.310;8.134;2023-08-17T05:26:04;19.70;99.90
3300;DHT22;1662;49.310;8.134;2023-08-17T05:28:30;19.80;99.90
3300;DHT22;1662;49.310;8.134;2023-08-17T05:30:55;19.80;99.90
3300;DHT22;1662;49.310;8.134;2023-08-17T05:33:22;19.80;99.90
3300;DHT22;1662;49.310;8.134;2023-08-17T05:35:54;19.80;99.90
3300;DHT22;1662;49.310;8.134;2023-08-17T05:38:19;19.80;99.90
3300;DHT22;1662;49.310;8.134;2023-08-17T05:40:47;19.80;99.90
3300;DHT22;1662;49.310;8.134;2023-08-17T05:43:13;19.90;99.90
3300;DHT22;1662;49.310;8.134;2023-08-17T05:45:38;19.80;99.90
3300;DHT22;1662;49.310;8.134;2023-08-17T05:48:04;19.90;99.90
3300;DHT22;1662;49.310;8.134;2023-08-17T05:50:30;19.90;99.90
3300;DHT22;1662;49.310;8.134;2023-08-17T05:52:56;19.90;99.90
3300;DHT22;1662;49.310;8.134;2023-08-17T05:55:21;20.00;99.90
3300;DHT22;1662;49.310;8.134;2023-08-17T05:57:47;19.90;99.90
3300;DHT22;1662;49.310;8.134;2023-08-17T06:00:13;20.00;99.90
3300;DHT22;1662;49.310;8.134;2023-08-17T06:02:41;20.00;99.90
3300;DHT22;1662;49.310;8.134;2023-08-17T06:05:07;20.00;99.90
3300;DHT22;1662;49.310;8.134;2023-08-17T06:07:34;20.10;99.90
3300;DHT22;1662;49.310;8.134;2023-08-17T06:12:28;20.10;99.90
3300;DHT22;1662;49.310;8.134;2023-08-17T06:14:54;20.10;99.90
3300;DHT22;1662;49.310;8.134;2023-08-17T06:17:19;20.20;99.90
3300;DHT22;1662;49.310;8.134;2023-08-17T06:19:45;20.20;99.90
3300;DHT22;1662;49.310;8.134;2023-08-17T06:22:11;20.20;99.90
3300;DHT22;1662;49.310;8.134;2023-08-17T06:24:37;20.20;99.90
3300;DHT22;1662;49.310;8.134;2023-08-17T06:27:03;20.20;99.90
3300;DHT22;1662;49.310;8.134;2023-08-17T06:29:28;20.20;99.90
3300;DHT22;1662;49.310;8.134;2023-08-17T06:31:54;20.20;99.90
3300;DHT22;1662;49.310;8.134;2023-08-17T06:34:20;20.20;99.90
3300;DHT22;1662;49.310;8.134;2023-08-17T06:36:57;20.20;99.90
3300;DHT22;1662;49.310;8.134;2023-08-17T06:39:23;20.30;99.90
3300;DHT22;1662;49.310;8.134;2023-08-17T06:41:49;20.30;99.90
3300;DHT22;1662;49.310;8.134;2023-08-17T06:44:15;20.30;99.90
3300;DHT22;1662;49.310;8.134;2023-08-17T06:46:43;20.30;99.90
3300;DHT22;1662;49.310;8.134;2023-08-17T06:49:08;20.30;99.90
3300;DHT22;1662;49.310;8.134;2023-08-17T06:51:34;20.30;99.90
3300;DHT22;1662;49.310;8.134;2023-08-17T06:53:59;20.30;99.90
3300;DHT22;1662;49.310;8.134;2023-08-17T06:56:25;20.30;99.90
3300;DHT22;1662;49.310;8.134;2023-08-17T06:58:51;20.30;99.90
3300;DHT22;1662;49.310;8.134;2023-08-17T07:01:16;20.40;99.90
3300;DHT22;1662;49.310;8.134;2023-08-17T07:03:42;20.40;99.90
3300;DHT22;1662;49.310;8.134;2023-08-17T07:06:08;20.50;99.90
3300;DHT22;1662;49.310;8.134;2023-08-17T07:08:35;20.50;99.90
3300;DHT22;1662;49.310;8.134;2023-08-17T07:11:00;20.50;99.90
3300;DHT22;1662;49.310;8.134;2023-08-17T07:13:26;20.50;99.90
3300;DHT22;1662;49.310;8.134;2023-08-17T07:15:51;20.50;99.90
3300;DHT22;1662;49.310;8.134;2023-08-17T07:18:17;20.50;99.90
3300;DHT22;1662;49.310;8.134;2023-08-17T07:20:42;20.70;99.90
3300;DHT22;1662;49.310;8.134;2023-08-17T07:23:08;20.60;99.90
3300;DHT22;1662;49.310;8.134;2023-08-17T07:25:34;20.60;99.90
3300;DHT22;1662;49.310;8.134;2023-08-17T07:27:59;20.60;99.90
3300;DHT22;1662;49.310;8.134;2023-08-17T07:30:25;20.60;99.90
3300;DHT22;1662;49.310;8.134;2023-08-17T07:32:51;20.70;99.90
3300;DHT22;1662;49.310;8.134;2023-08-17T07:35:16;20.70;99.90
3300;DHT22;1662;49.310;8.134;2023-08-17T07:37:42;20.70;99.90
3300;DHT22;1662;49.310;8.134;2023-08-17T07:40:08;20.80;99.90
3300;DHT22;1662;49.310;8.134;2023-08-17T07:42:33;20.80;99.90
3300;DHT22;1662;49.310;8.134;2023-08-17T07:45:02;20.70;99.90
3300;DHT22;1662;49.310;8.134;2023-08-17T07:47:29;20.90;99.90
3300;DHT22;1662;49.310;8.134;2023-08-17T07:49:55;21.00;99.90
3300;DHT22;1662;49.310;8.134;2023-08-17T07:52:23;21.00;99.90
3300;DHT22;1662;49.310;8.134;2023-08-17T07:54:52;21.10;99.90
3300;DHT22;1662;49.310;8.134;2023-08-17T07:57:18;21.20;99.90
3300;DHT22;1662;49.310;8.134;2023-08-17T07:59:43;21.60;99.90
3300;DHT22;1662;49.310;8.134;2023-08-17T08:02:09;21.30;99.90
3300;DHT22;1662;49.310;8.134;2023-08-17T08:04:35;21.30;99.90
3300;DHT22;1662;49.310;8.134;2023-08-17T08:07:00;21.40;99.90
3300;DHT22;1662;49.310;8.134;2023-08-17T08:09:26;21.40;99.90
3300;DHT22;1662;49.310;8.134;2023-08-17T08:11:51;21.50;99.90
3300;DHT22;1662;49.310;8.134;2023-08-17T08:14:19;21.60;99.90
3300;DHT22;1662;49.310;8.134;2023-08-17T08:16:45;21.70;99.90
3300;DHT22;1662;49.310;8.134;2023-08-17T08:19:10;21.70;99.90
3300;DHT22;1662;49.310;8.134;2023-08-17T08:21:36;21.80;99.90
3300;DHT22;1662;49.310;8.134;2023-08-17T08:24:01;21.80;99.90
3300;DHT22;1662;49.310;8.134;2023-08-17T08:26:29;21.80;99.90
3300;DHT22;1662;49.310;8.134;2023-08-17T08:28:55;21.80;99.90
3300;DHT22;1662;49.310;8.134;2023-08-17T08:31:21;21.80;99.90
3300;DHT22;1662;49.310;8.134;2023-08-17T08:33:46;21.80;99.90
3300;DHT22;1662;49.310;8.134;2023-08-17T08:36:12;21.90;99.90
3300;DHT22;1662;49.310;8.134;2023-08-17T08:38:37;21.90;99.90
3300;DHT22;1662;49.310;8.134;2023-08-17T08:41:03;22.00;99.90
3300;DHT22;1662;49.310;8.134;2023-08-17T08:43:29;22.00;99.90
3300;DHT22;1662;49.310;8.134;2023-08-17T08:45:55;22.10;99.90
3300;DHT22;1662;49.310;8.134;2023-08-17T08:48:22;22.10;99.90
3300;DHT22;1662;49.310;8.134;2023-08-17T08:50:50;22.20;99.90
3300;DHT22;1662;49.310;8.134;2023-08-17T08:53:24;22.30;99.90
3300;DHT22;1662;49.310;8.134;2023-08-17T08:55:56;22.30;99.90
3300;DHT22;1662;49.310;8.134;2023-08-17T08:58:23;22.40;99.90
3300;DHT22;1662;49.310;8.134;2023-08-17T09:00:50;22.60;99.90
3300;DHT22;1662;49.310;8.134;2023-08-17T09:03:16;22.70;99.90
3300;DHT22;1662;49.310;8.134;2023-08-17T09:05:49;22.70;99.90
3300;DHT22;1662;49.310;8.134;2023-08-17T09:08:17;22.80;99.90
3300;DHT22;1662;49.310;8.134;2023-08-17T09:10:44;22.90;99.90
3300;DHT22;1662;49.310;8.134;2023-08-17T09:13:10;22.90;99.90
3300;DHT22;1662;49.310;8.134;2023-08-17T09:15:35;23.00;99.90
3300;DHT22;1662;49.310;8.134;2023-08-17T09:18:03;23.10;99.90
3300;DHT22;1662;49.310;8.134;2023-08-17T09:20:46;23.20;99.90
3300;DHT22;1662;49.310;8.134;2023-08-17T09:23:14;23.30;99.90
3300;DHT22;1662;49.310;8.134;2023-08-17T09:25:41;23.50;99.90
3300;DHT22;1662;49.310;8.134;2023-08-17T09:28:12;23.60;99.90
3300;DHT22;1662;49.310;8.134;2023-08-17T09:30:58;23.60;99.90
3300;DHT22;1662;49.310;8.134;2023-08-17T09:33:26;23.80;99.90
3300;DHT22;1662;49.310;8.134;2023-08-17T09:35:53;23.90;99.90
3300;DHT22;1662;49.310;8.134;2023-08-17T09:38:19;24.00;99.90
3300;DHT22;1662;49.310;8.134;2023-08-17T09:40:46;24.10;99.90
3300;DHT22;1662;49.310;8.134;2023-08-17T09:43:14;24.20;99.90
3300;DHT22;1662;49.310;8.134;2023-08-17T09:48:07;24.40;99.90
3300;DHT22;1662;49.310;8.134;2023-08-17T09:50:34;24.50;99.90
3300;DHT22;1662;49.310;8.134;2023-08-17T09:53:04;24.60;99.90
3300;DHT22;1662;49.310;8.134;2023-08-17T09:55:32;24.70;99.90
3300;DHT22;1662;49.310;8.134;2023-08-17T09:57:59;24.80;99.90
3300;DHT22;1662;49.310;8.134;2023-08-17T10:00:26;24.90;99.90
3300;DHT22;1662;49.310;8.134;2023-08-17T10:02:53;25.10;99.90
3300;DHT22;1662;49.310;8.134;2023-08-17T10:05:20;25.20;99.90
3300;DHT22;1662;49.310;8.134;2023-08-17T10:07:49;25.30;99.90
3300;DHT22;1662;49.310;8.134;2023-08-17T10:10:22;25.40;99.90
3300;DHT22;1662;49.310;8.134;2023-08-17T10:15:25;25.60;99.90
3300;DHT22;1662;49.310;8.134;2023-08-17T10:20:48;25.80;99.90
3300;DHT22;1662;49.310;8.134;2023-08-17T10:23:19;26.00;99.90
3300;DHT22;1662;49.310;8.134;2023-08-17T10:25:48;26.10;99.90
3300;DHT22;1662;49.310;8.134;2023-08-17T10:28:15;26.20;99.90
3300;DHT22;1662;49.310;8.134;2023-08-17T10:30:42;26.20;99.90
3300;DHT22;1662;49.310;8.134;2023-08-17T10:33:08;26.30;99.90
3300;DHT22;1662;49.310;8.134;2023-08-17T10:35:35;26.30;99.90
3300;DHT22;1662;49.310;8.134;2023-08-17T10:38:03;26.30;99.90
3300;DHT22;1662;49.310;8.134;2023-08-17T10:40:36;26.40;99.90
3300;DHT22;1662;49.310;8.134;2023-08-17T10:43:02;26.50;99.90
3300;DHT22;1662;49.310;8.134;2023-08-17T10:45:33;26.70;99.90
3300;DHT22;1662;49.310;8.134;2023-08-17T10:48:25;26.80;99.90
3300;DHT22;1662;49.310;8.134;2023-08-17T10:51:00;26.90;99.90
3300;DHT22;1662;49.310;8.134;2023-08-17T10:53:26;27.10;99.90
3300;DHT22;1662;49.310;8.134;2023-08-17T10:55:59;27.10;99.90
3300;DHT22;1662;49.310;8.134;2023-08-17T10:58:24;27.30;99.90
3300;DHT22;1662;49.310;8.134;2023-08-17T11:00:54;27.40;99.90
3300;DHT22;1662;49.310;8.134;2023-08-17T11:03:22;27.50;99.90
3300;DHT22;1662;49.310;8.134;2023-08-17T11:05:49;27.60;99.90
3300;DHT22;1662;49.310;8.134;2023-08-17T11:08:39;27.60;99.90
3300;DHT22;1662;49.310;8.134;2023-08-17T11:11:11;27.60;99.90
3300;DHT22;1662;49.310;8.134;2023-08-17T11:13:41;27.60;99.90
3300;DHT22;1662;49.310;8.134;2023-08-17T11:16:09;27.60;99.90
3300;DHT22;1662;49.310;8.134;2023-08-17T11:18:35;27.70;99.90
3300;DHT22;1662;49.310;8.134;2023-08-17T11:21:05;27.80;99.90
3300;DHT22;1662;49.310;8.134;2023-08-17T11:23:33;27.70;99.90
3300;DHT22;1662;49.310;8.134;2023-08-17T11:25:59;27.60;99.90
3300;DHT22;1662;49.310;8.134;2023-08-17T11:28:25;27.40;99.90
3300;DHT22;1662;49.310;8.134;2023-08-17T11:31:05;27.40;99.90
3300;DHT22;1662;49.310;8.134;2023-08-17T11:33:32;27.40;99.90
3300;DHT22;1662;49.310;8.134;2023-08-17T11:35:59;27.40;99.90
3300;DHT22;1662;49.310;8.134;2023-08-17T11:38:26;27.40;99.90
3300;DHT22;1662;49.310;8.134;2023-08-17T11:40:52;27.30;99.90
3300;DHT22;1662;49.310;8.134;2023-08-17T11:43:18;27.30;99.90
3300;DHT22;1662;49.310;8.134;2023-08-17T11:45:46;27.30;99.90
3300;DHT22;1662;49.310;8.134;2023-08-17T11:48:12;27.30;99.90
3300;DHT22;1662;49.310;8.134;2023-08-17T11:50:38;27.60;99.90
3300;DHT22;1662;49.310;8.134;2023-08-17T11:53:05;27.70;99.90
3300;DHT22;1662;49.310;8.134;2023-08-17T11:55:31;27.90;99.90
3300;DHT22;1662;49.310;8.134;2023-08-17T11:57:56;28.20;99.90
3300;DHT22;1662;49.310;8.134;2023-08-17T12:00:22;28.40;99.90
3300;DHT22;1662;49.310;8.134;2023-08-17T12:02:52;28.50;99.90
3300;DHT22;1662;49.310;8.134;2023-08-17T12:05:22;28.50;99.90
3300;DHT22;1662;49.310;8.134;2023-08-17T12:07:55;28.40;99.90
3300;DHT22;1662;49.310;8.134;2023-08-17T12:10:21;28.40;99.90
3300;DHT22;1662;49.310;8.134;2023-08-17T12:12:49;28.30;99.90
3300;DHT22;1662;49.310;8.134;2023-08-17T12:15:18;28.30;99.90
3300;DHT22;1662;49.310;8.134;2023-08-17T12:17:48;28.30;99.90
3300;DHT22;1662;49.310;8.134;2023-08-17T12:20:18;28.00;99.90
3300;DHT22;1662;49.310;8.134;2023-08-17T12:22:44;27.90;99.90
3300;DHT22;1662;49.310;8.134;2023-08-17T12:25:10;27.80;99.90
3300;DHT22;1662;49.310;8.134;2023-08-17T12:27:36;27.70;99.90
3300;DHT22;1662;49.310;8.134;2023-08-17T12:30:02;27.60;99.90
3300;DHT22;1662;49.310;8.134;2023-08-17T12:32:28;27.50;99.90
3300;DHT22;1662;49.310;8.134;2023-08-17T12:34:53;27.50;99.90
3300;DHT22;1662;49.310;8.134;2023-08-17T12:37:20;27.40;99.90
3300;DHT22;1662;49.310;8.134;2023-08-17T12:39:48;27.40;99.90
3300;DHT22;1662;49.310;8.134;2023-08-17T12:42:14;27.30;99.90
3300;DHT22;1662;49.310;8.134;2023-08-17T12:44:42;27.30;99.90
3300;DHT22;1662;49.310;8.134;2023-08-17T12:47:08;27.30;99.90
3300;DHT22;1662;49.310;8.134;2023-08-17T12:49:33;27.30;99.90
3300;DHT22;1662;49.310;8.134;2023-08-17T12:52:01;27.40;99.90
3300;DHT22;1662;49.310;8.134;2023-08-17T12:54:27;27.40;99.90
3300;DHT22;1662;49.310;8.134;2023-08-17T12:56:52;27.40;99.90
3300;DHT22;1662;49.310;8.134;2023-08-17T12:59:18;27.40;99.90
3300;DHT22;1662;49.310;8.134;2023-08-17T13:01:43;27.40;99.90
3300;DHT22;1662;49.310;8.134;2023-08-17T13:04:09;27.60;99.90
3300;DHT22;1662;49.310;8.134;2023-08-17T13:06:37;27.60;99.90
3300;DHT22;1662;49.310;8.134;2023-08-17T13:09:05;27.70;99.90
3300;DHT22;1662;49.310;8.134;2023-08-17T13:11:31;27.90;99.90
3300;DHT22;1662;49.310;8.134;2023-08-17T13:13:57;28.30;99.90
3300;DHT22;1662;49.310;8.134;2023-08-17T13:16:23;28.50;99.90
3300;DHT22;1662;49.310;8.134;2023-08-17T13:18:48;28.80;99.90
3300;DHT22;1662;49.310;8.134;2023-08-17T13:21:14;29.00;99.90
3300;DHT22;1662;49.310;8.134;2023-08-17T13:23:41;29.20;99.90
3300;DHT22;1662;49.310;8.134;2023-08-17T13:26:07;29.50;99.90
3300;DHT22;1662;49.310;8.134;2023-08-17T13:28:32;29.60;99.90
3300;DHT22;1662;49.310;8.134;2023-08-17T13:30:58;29.70;99.90
3300;DHT22;1662;49.310;8.134;2023-08-17T13:33:23;29.80;99.90
3300;DHT22;1662;49.310;8.134;2023-08-17T13:35:49;29.80;99.90
3300;DHT22;1662;49.310;8.134;2023-08-17T13:38:16;29.80;99.90
3300;DHT22;1662;49.310;8.134;2023-08-17T13:40:42;29.80;99.90
3300;DHT22;1662;49.310;8.134;2023-08-17T13:43:10;29.90;99.90
3300;DHT22;1662;49.310;8.134;2023-08-17T13:45:39;29.90;99.90
3300;DHT22;1662;49.310;8.134;2023-08-17T13:48:08;30.00;99.90
3300;DHT22;1662;49.310;8.134;2023-08-17T13:50:37;30.10;99.90
3300;DHT22;1662;49.310;8.134;2023-08-17T13:53:03;30.10;99.90
3300;DHT22;1662;49.310;8.134;2023-08-17T13:55:29;30.20;99.90
3300;DHT22;1662;49.310;8.134;2023-08-17T13:57:55;30.20;99.90
3300;DHT22;1662;49.310;8.134;2023-08-17T14:00:24;30.40;99.90
3300;DHT22;1662;49.310;8.134;2023-08-17T14:02:50;30.40;99.90
3300;DHT22;1662;49.310;8.134;2023-08-17T14:05:16;30.40;99.90
3300;DHT22;1662;49.310;8.134;2023-08-17T14:10:08;30.20;99.90
3300;DHT22;1662;49.310;8.134;2023-08-17T14:12:34;30.00;99.90
3300;DHT22;1662;49.310;8.134;2023-08-17T14:15:00;29.90;99.90
3300;DHT22;1662;49.310;8.134;2023-08-17T14:17:25;29.90;99.90
3300;DHT22;1662;49.310;8.134;2023-08-17T14:19:51;29.90;99.90
3300;DHT22;1662;49.310;8.134;2023-08-17T14:22:17;30.10;99.90
3300;DHT22;1662;49.310;8.134;2023-08-17T14:24:42;30.30;99.90
3300;DHT22;1662;49.310;8.134;2023-08-17T14:27:08;30.50;99.90
3300;DHT22;1662;49.310;8.134;2023-08-17T14:29:33;30.60;99.90
3300;DHT22;1662;49.310;8.134;2023-08-17T14:31:59;30.60;99.90
3300;DHT22;1662;49.310;8.134;2023-08-17T14:34:25;30.50;99.90
3300;DHT22;1662;49.310;8.134;2023-08-17T14:36:50;30.50;99.90
3300;DHT22;1662;49.310;8.134;2023-08-17T14:39:16;30.70;99.90
3300;DHT22;1662;49.310;8.134;2023-08-17T14:41:41;30.70;99.90
3300;DHT22;1662;49.310;8.134;2023-08-17T14:44:09;30.60;99.90
3300;DHT22;1662;49.310;8.134;2023-08-17T14:46:35;30.70;99.90
3300;DHT22;1662;49.310;8.134;2023-08-17T14:49:01;30.80;99.90
3300;DHT22;1662;49.310;8.134;2023-08-17T14:51:28;31.00;99.90
3300;DHT22;1662;49.310;8.134;2023-08-17T14:53:54;31.10;99.90
3300;DHT22;1662;49.310;8.134;2023-08-17T14:56:19;31.40;99.90
3300;DHT22;1662;49.310;8.134;2023-08-17T14:58:45;31.50;99.90
3300;DHT22;1662;49.310;8.134;2023-08-17T15:01:11;31.60;99.90
3300;DHT22;1662;49.310;8.134;2023-08-17T15:03:37;31.60;99.90
3300;DHT22;1662;49.310;8.134;2023-08-17T15:06:06;31.60;99.90
3300;DHT22;1662;49.310;8.134;2023-08-17T15:08:35;31.70;99.90
3300;DHT22;1662;49.310;8.134;2023-08-17T15:11:00;31.70;99.90
3300;DHT22;1662;49.310;8.134;2023-08-17T15:13:28;31.80;99.90
3300;DHT22;1662;49.310;8.134;2023-08-17T15:15:56;31.80;99.90
3300;DHT22;1662;49.310;8.134;2023-08-17T15:18:24;31.90;99.90
3300;DHT22;1662;49.310;8.134;2023-08-17T15:20:50;31.90;99.90
3300;DHT22;1662;49.310;8.134;2023-08-17T15:23:15;31.90;99.90
3300;DHT22;1662;49.310;8.134;2023-08-17T15:25:44;32.00;99.90
3300;DHT22;1662;49.310;8.134;2023-08-17T15:28:09;32.00;99.90
3300;DHT22;1662;49.310;8.134;2023-08-17T15:30:35;32.00;99.90
3300;DHT22;1662;49.310;8.134;2023-08-17T15:33:00;32.00;99.90
3300;DHT22;1662;49.310;8.134;2023-08-17T15:35:26;32.00;99.90
3300;DHT22;1662;49.310;8.134;2023-08-17T15:37:52;32.00;99.90
3300;DHT22;1662;49.310;8.134;2023-08-17T15:40:17;31.90;99.90
3300;DHT22;1662;49.310;8.134;2023-08-17T15:42:43;31.90;99.90
3300;DHT22;1662;49.310;8.134;2023-08-17T15:45:09;31.90;99.90
3300;DHT22;1662;49.310;8.134;2023-08-17T15:47:34;31.90;99.90
3300;DHT22;1662;49.310;8.134;2023-08-17T15:50:00;31.90;99.90
3300;DHT22;1662;49.310;8.134;2023-08-17T15:52:26;31.90;99.90
3300;DHT22;1662;49.310;8.134;2023-08-17T15:54:54;32.00;99.90
3300;DHT22;1662;49.310;8.134;2023-08-17T15:57:22;32.00;99.90
3300;DHT22;1662;49.310;8.134;2023-08-17T15:59:47;32.00;99.90
3300;DHT22;1662;49.310;8.134;2023-08-17T16:02:16;32.00;99.90
3300;DHT22;1662;49.310;8.134;2023-08-17T16:04:42;32.00;99.90
3300;DHT22;1662;49.310;8.134;2023-08-17T16:07:07;32.00;99.90
3300;DHT22;1662;49.310;8.134;2023-08-17T16:09:33;32.00;99.90
3300;DHT22;1662;49.310;8.134;2023-08-17T16:11:59;32.00;99.90
3300;DHT22;1662;49.310;8.134;2023-08-17T16:14:24;32.00;99.90
3300;DHT22;1662;49.310;8.134;2023-08-17T16:16:50;32.00;99.90